Terminal Aerodrome Forecast
Issued by NWS Portland, OR

Home | Current Version | Previous Version | Text Only | Print | Product List | Glossary On
Versions: 1 2 3 4 5 6 7 8 9 10 11 12 13 14 15 16 17 18 19 20 21 22 23 24 25 26
000
FTUS46 KPQR 231623 AAA
TAFEUG
TAF AMD
KEUG 231623Z 2316/2412 19009KT P6SM -SHRA SCT025 OVC050
      TEMPO 2316/2319 6SM BR BKN025 OVC040
     FM231900 20009KT P6SM -SHRA SCT025 BKN040
     FM240400 VRB02KT P6SM BKN040=

USA.gov is the U.S. government's official web portal to all federal, state and local government web resources and services.